Domov               UVHVVR             MKGP            O straneh              
ZDRAVSTVENO VARSTVO RASTLIN
  MREŽA AGROMET. POSTAJ
 ► PROGNOSTIČNA OBVESTILA
AGROMETEOROLOŠKI PODATKI -
ARSO
OBVLADOVANJE TVEGANJ ZARADI
NEUGODNIH VREMENSKIH RAZMER
  ► NARAVNE NESREČE
  ► SUŠA/MOČA
  ► NAMAKANJE
  ► ŽLED (gozdarstvo)
KARTOGRAFSKI PRIKAZI
SPLETNE POVEZAVE
PROJEKTI IN PUBLIKACIJE

AGROMETEOROLOŠKA MREŽA: VREMENSKE POSTAJE IN FENOLOŠKA OPAZOVANJA

Pregled podatkov za lokacijo Dragonja, meteorološka postaja 42389

Pregled senzorjev na lokaciji

ID Ime Zadnja
vrednost
Datum
zadnje
spremembe
Tip
senzorja
4389 Omočenost lista (U) 0 U 18.3.2019 23:00 A730WET
2098 Padavine (mm) 0 mm 18.3.2019 23:00 Rain-O-Matic
2096 Relativna vlaga 2 m (% RH) 53,18 % RH 18.3.2019 22:59 50YA
2095 Temperatura 2 m (°C) 7,95 °C 18.3.2019 22:59 50YA

Pregled podatkov zadnjih 24 ur

Zap.
št.
Datum in čas Dragonja
Omočenost
lista
Padavine Relativna
vlaga
2
m
Temperatura
2
m
1 18.3.2019 22:00
2 18.3.2019 21:30 0 0 54,9 7,8
3 18.3.2019 21:00 0 0 56,7 7,6
4 18.3.2019 20:30 1 0 60,4 7,3
5 18.3.2019 20:00 9 0 62 7,1
6 18.3.2019 19:30 9 0 64,8 6,9
7 18.3.2019 19:00 7 0 68,5 6,7
8 18.3.2019 18:30 6 0 71 6,4
9 18.3.2019 18:00 6 0,2 72,6 6,3
10 18.3.2019 17:30 5 0,2 73,4 6,3
11 18.3.2019 17:00 8 0 72,8 6,4
12 18.3.2019 16:30 10 0 73,6 6,3
13 18.3.2019 16:00 9 0,4 76,7 6,1
14 18.3.2019 15:30 10 0,2 79,4 5,8
15 18.3.2019 15:00 10 0,6 80,8 5,8
16 18.3.2019 14:30 10 0,8 81,6 6,3
17 18.3.2019 14:00 10 0,8 79,8 6,8
18 18.3.2019 13:30 10 0 81,3 7,6
19 18.3.2019 13:00 10 0,6 82,5 8,5
20 18.3.2019 12:30 10 0,2 80,7 9,7
21 18.3.2019 12:00 10 0 81,6 10,5
22 18.3.2019 11:30 0 0 58,6 14,2
23 18.3.2019 11:00 0 0 56,4 15,3
24 18.3.2019 10:30 1 0 60,4 15,3
25 18.3.2019 10:00 1 0 63,2 14,5
26 18.3.2019 09:30 0 0 64,1 14,8
27 18.3.2019 09:00 0 0 63,8 14,3
28 18.3.2019 08:30 0 0 67,7 13,5
29 18.3.2019 08:00 0 0 71,3 12,9
30 18.3.2019 07:30 0 0 74 12,4
31 18.3.2019 07:00 0 0 77 11,9
32 18.3.2019 06:30 0 0 76,5 12
33 18.3.2019 06:00 0 0 75,8 12,1
34 18.3.2019 05:30 0 0 74,6 12,3
35 18.3.2019 05:00 0 0 74,8 12,4
36 18.3.2019 04:30 0 0 76,2 12,2
37 18.3.2019 04:00 0 0 77,7 11,9
38 18.3.2019 03:30 0 0 78,2 11,7
39 18.3.2019 03:00 0 0 76,5 12
40 18.3.2019 02:30 0 0 75,9 12,4
41 18.3.2019 02:00 0 0 75,3 12,6
42 18.3.2019 01:30 0 0 74,6 12,6
43 18.3.2019 01:00 0 0 74,1 12,7
44 18.3.2019 00:30 0 0 73,6 12,8
45 18.3.2019 00:00 0 0 73,9 12,8
46 17.3.2019 23:30 0 0 73,5 12,9
47 17.3.2019 23:00 0 0 73,4 12,9
48 17.3.2019 22:30 0 0 73,6 12,8
© 2011 Ministrstvo za kmetijstvo, gozdarstvo in prehrano. Vse pravice pridržane.